Time;durP1;ratioP1;P1;durP2;ratioP2;P2;SDS_P1;SDS_P2;PMS_P1;PMS_P2;Temp;Humidity;BMP_temperature;BMP_pressure;BME280_temperature;BME280_humidity;BME280_pressure;Samples;Min_cycle;Max_cycle;Signal;HPM_P1;HPM_P2
2023/05/16 00:01:04;;;;;;;18.88;10.50;;;;;;;;;;5038444;28;20037;-59
2023/05/16 00:03:30;;;;;;;19.25;10.90;;;;;;;;;;5040185;28;20663;-62
2023/05/16 00:05:56;;;;;;;20.38;11.13;;;;;;;;;;5039776;28;20335;-58
2023/05/16 00:08:23;;;;;;;20.70;12.27;;;;;;;;;;5040124;28;20112;-61
2023/05/16 00:10:49;;;;;;;18.95;10.35;;;;;;;;;;5040184;28;20056;-61
2023/05/16 00:13:15;;;;;;;18.13;10.07;;;;;;;;;;5039461;28;20021;-61
2023/05/16 00:15:42;;;;;;;17.42;9.50;;;;;;;;;;5039179;28;20029;-60
2023/05/16 00:18:08;;;;;;;17.47;9.60;;;;;;;;;;5021703;28;20094;-60
2023/05/16 00:20:35;;;;;;;17.90;9.43;;;;;;;;;;5039484;28;20109;-61
2023/05/16 00:23:01;;;;;;;19.33;9.77;;;;;;;;;;5039488;28;20021;-61
2023/05/16 00:25:27;;;;;;;18.42;8.77;;;;;;;;;;5039425;28;20021;-61
2023/05/16 00:27:56;;;;;;;18.23;9.32;;;;;;;;;;5039404;28;20405;-61
2023/05/16 00:30:22;;;;;;;17.13;10.18;;;;;;;;;;5039117;28;20030;-60
2023/05/16 00:32:48;;;;;;;16.23;9.30;;;;;;;;;;5039016;28;20028;-58
2023/05/16 00:35:14;;;;;;;16.95;9.73;;;;;;;;;;5021609;28;20673;-61
2023/05/16 00:37:40;;;;;;;18.35;8.90;;;;;;;;;;5020941;28;20378;-60
2023/05/16 00:40:06;;;;;;;16.35;9.13;;;;;;;;;;5038319;28;20155;-62
2023/05/16 00:42:33;;;;;;;23.00;10.77;;;;;;;;;;5038984;28;20026;-61
2023/05/16 00:44:59;;;;;;;16.63;9.73;;;;;;;;;;5039051;28;20508;-60
2023/05/16 00:47:25;;;;;;;18.52;12.52;;;;;;;;;;5038669;28;20104;-61
2023/05/16 00:49:51;;;;;;;17.08;15.27;;;;;;;;;;5039748;28;20029;-61
2023/05/16 00:52:17;;;;;;;17.08;15.27;;;;;;;;;;5039997;28;20032;-61
2023/05/16 00:54:43;;;;;;;19.08;17.25;;;;;;;;;;5038634;28;20429;-60
2023/05/16 00:57:09;;;;;;;19.23;17.23;;;;;;;;;;5020060;28;20529;-60
2023/05/16 00:59:35;;;;;;;17.45;15.65;;;;;;;;;;5036699;28;20068;-57
2023/05/16 01:02:01;;;;;;;17.45;15.65;;;;;;;;;;5037022;28;20075;-60
2023/05/16 01:04:27;;;;;;;17.38;15.43;;;;;;;;;;5036663;28;20108;-57
2023/05/16 01:06:54;;;;;;;18.60;16.63;;;;;;;;;;5037815;28;20095;-60
2023/05/16 01:09:20;;;;;;;24.23;18.55;;;;;;;;;;5038301;28;20063;-60
2023/05/16 01:11:51;;;;;;;19.42;17.42;;;;;;;;;;5019528;28;20113;-60
2023/05/16 01:14:38;;;;;;;21.80;16.02;;;;;;;;;;5019685;28;20025;-61
2023/05/16 01:17:40;;;;;;;23.08;17.15;;;;;;;;;;5037362;28;20025;-59
2023/05/16 01:20:17;;;;;;;20.33;17.58;;;;;;;;;;4938139;29;20039;-59
2023/05/16 01:22:44;;;;;;;23.90;18.83;;;;;;;;;;5025005;28;20033;-59
2023/05/16 01:25:16;;;;;;;21.83;19.20;;;;;;;;;;5018237;28;20025;-59
2023/05/16 01:27:44;;;;;;;23.13;18.05;;;;;;;;;;5018050;28;20395;-60
2023/05/16 01:30:15;;;;;;;26.65;18.77;;;;;;;;;;5036697;28;20024;-60
2023/05/16 01:32:41;;;;;;;25.60;18.95;;;;;;;;;;5036681;28;20550;-60
2023/05/16 01:35:08;;;;;;;23.50;18.88;;;;;;;;;;5036174;28;20056;-60
2023/05/16 01:37:40;;;;;;;23.75;18.05;;;;;;;;;;5036079;28;20026;-55
2023/05/16 01:40:09;;;;;;;26.88;19.98;;;;;;;;;;5017928;28;20034;-59
2023/05/16 01:42:35;;;;;;;;;;;;;;;;;;5036455;28;20096;-57
2023/05/16 01:45:08;;;;;;;22.92;19.10;;;;;;;;;;5034783;28;20396;-60
2023/05/16 01:47:37;;;;;;;25.05;19.13;;;;;;;;;;5035171;28;20485;-58
2023/05/16 01:50:13;;;;;;;24.10;19.65;;;;;;;;;;5035231;28;20033;-57
2023/05/16 01:52:45;;;;;;;24.15;20.33;;;;;;;;;;5035230;28;20071;-56
2023/05/16 01:55:15;;;;;;;24.17;18.88;;;;;;;;;;5036036;28;20501;-60
2023/05/16 01:57:42;;;;;;;25.00;18.80;;;;;;;;;;5035430;28;20061;-61
2023/05/16 02:00:08;;;;;;;21.58;18.17;;;;;;;;;;5017615;28;20029;-57
2023/05/16 02:02:34;;;;;;;26.10;18.38;;;;;;;;;;5035043;28;20485;-59
2023/05/16 02:05:00;;;;;;;28.15;17.88;;;;;;;;;;5034873;28;20045;-60
2023/05/16 02:07:26;;;;;;;22.48;17.60;;;;;;;;;;5016756;28;20052;-60
2023/05/16 02:09:52;;;;;;;25.58;19.90;;;;;;;;;;5035194;28;20034;-59
2023/05/16 02:12:19;;;;;;;30.23;17.90;;;;;;;;;;5017158;28;20037;-60
2023/05/16 02:14:45;;;;;;;25.35;17.27;;;;;;;;;;5017174;28;20520;-57
2023/05/16 02:17:11;;;;;;;23.77;17.35;;;;;;;;;;5035436;28;20037;-59
2023/05/16 02:19:37;;;;;;;22.30;17.58;;;;;;;;;;5034340;28;20025;-59
2023/05/16 02:22:03;;;;;;;27.33;17.75;;;;;;;;;;5034938;28;20097;-57
2023/05/16 02:24:29;;;;;;;25.77;18.65;;;;;;;;;;5016943;28;20466;-58
2023/05/16 02:26:55;;;;;;;27.65;17.77;;;;;;;;;;5016863;28;20024;-57
2023/05/16 02:29:21;;;;;;;27.00;17.95;;;;;;;;;;5017633;28;20026;-60
2023/05/16 02:31:47;;;;;;;26.88;18.55;;;;;;;;;;5034743;28;20059;-60
2023/05/16 02:34:13;;;;;;;25.55;17.27;;;;;;;;;;5034946;28;20025;-60
2023/05/16 02:36:40;;;;;;;36.63;18.00;;;;;;;;;;5034586;28;20056;-59
2023/05/16 02:39:08;;;;;;;26.92;16.75;;;;;;;;;;5034570;28;20021;-60
2023/05/16 02:41:33;;;;;;;31.15;16.92;;;;;;;;;;5035086;28;20014;-60
2023/05/16 02:43:59;;;;;;;27.27;16.77;;;;;;;;;;5034054;28;20051;-59
2023/05/16 02:46:29;;;;;;;28.63;16.67;;;;;;;;;;5016898;28;20069;-62
2023/05/16 02:48:56;;;;;;;23.13;16.52;;;;;;;;;;5034823;28;20474;-56
2023/05/16 02:51:23;;;;;;;23.67;16.63;;;;;;;;;;5034321;28;20021;-57
2023/05/16 02:53:50;;;;;;;21.23;15.90;;;;;;;;;;5034019;28;20500;-59
2023/05/16 02:56:16;;;;;;;23.77;16.92;;;;;;;;;;5015274;28;20030;-59
2023/05/16 02:58:42;;;;;;;27.15;15.80;;;;;;;;;;5033111;28;20030;-56
2023/05/16 03:01:08;;;;;;;24.40;16.35;;;;;;;;;;5033368;28;20021;-57
2023/05/16 03:03:35;;;;;;;30.00;16.90;;;;;;;;;;5015936;28;20020;-59
2023/05/16 03:06:01;;;;;;;23.35;15.68;;;;;;;;;;5015411;28;20079;-55
2023/05/16 03:08:27;;;;;;;27.90;15.35;;;;;;;;;;5033614;28;20048;-55
2023/05/16 03:10:53;;;;;;;24.67;15.95;;;;;;;;;;5033386;28;20025;-58
2023/05/16 03:13:19;;;;;;;34.83;17.20;;;;;;;;;;5033340;28;20052;-58
2023/05/16 03:15:46;;;;;;;33.38;16.83;;;;;;;;;;5033348;28;20041;-57
2023/05/16 03:18:12;;;;;;;29.42;17.33;;;;;;;;;;5033685;28;20033;-59
2023/05/16 03:20:38;;;;;;;23.05;15.75;;;;;;;;;;5037507;28;20068;-59
2023/05/16 03:23:07;;;;;;;27.50;15.52;;;;;;;;;;5037687;28;20394;-58
2023/05/16 03:25:36;;;;;;;26.77;14.30;;;;;;;;;;5038222;28;20022;-59
2023/05/16 03:28:03;;;;;;;22.08;14.93;;;;;;;;;;5038482;28;20030;-59
2023/05/16 03:30:29;;;;;;;26.17;14.18;;;;;;;;;;5038071;28;20112;-59
2023/05/16 03:32:55;;;;;;;27.77;14.30;;;;;;;;;;5038314;28;20033;-58
2023/05/16 03:35:21;;;;;;;22.77;15.95;;;;;;;;;;5037299;28;20485;-60
2023/05/16 03:37:47;;;;;;;28.15;14.07;;;;;;;;;;5037970;28;20097;-59
2023/05/16 03:40:13;;;;;;;23.58;13.77;;;;;;;;;;5037414;28;20053;-60
2023/05/16 03:42:39;;;;;;;21.23;13.25;;;;;;;;;;5037957;28;20025;-58
2023/05/16 03:45:06;;;;;;;24.63;13.18;;;;;;;;;;5038049;28;20021;-60
2023/05/16 03:47:32;;;;;;;22.27;13.88;;;;;;;;;;5038762;28;20104;-60
2023/05/16 03:49:58;;;;;;;20.95;14.18;;;;;;;;;;5039130;28;20036;-60
2023/05/16 03:52:24;;;;;;;24.10;14.15;;;;;;;;;;5039292;28;20398;-60
2023/05/16 03:54:50;;;;;;;21.95;15.10;;;;;;;;;;5021582;28;20136;-59
2023/05/16 03:57:16;;;;;;;33.50;15.68;;;;;;;;;;5039149;28;20056;-60
2023/05/16 03:59:43;;;;;;;35.92;15.88;;;;;;;;;;5020740;28;20033;-60
2023/05/16 04:02:09;;;;;;;26.20;14.13;;;;;;;;;;5038944;28;20036;-59
2023/05/16 04:04:35;;;;;;;25.60;15.25;;;;;;;;;;5038812;28;20082;-61
2023/05/16 04:07:02;;;;;;;27.77;14.43;;;;;;;;;;5040349;28;20021;-60
2023/05/16 04:09:28;;;;;;;26.35;15.13;;;;;;;;;;5040629;28;20025;-59
2023/05/16 04:11:55;;;;;;;30.08;15.10;;;;;;;;;;5039693;28;20496;-60
2023/05/16 04:14:21;;;;;;;28.77;15.18;;;;;;;;;;5040242;28;20347;-59
2023/05/16 04:16:47;;;;;;;24.83;14.60;;;;;;;;;;5039369;28;20021;-59
2023/05/16 04:19:13;;;;;;;23.83;14.23;;;;;;;;;;5038610;28;20036;-59
2023/05/16 04:21:39;;;;;;;23.45;13.23;;;;;;;;;;5038543;28;20029;-60
2023/05/16 04:24:05;;;;;;;29.80;14.85;;;;;;;;;;5037794;28;20083;-59
2023/05/16 04:26:31;;;;;;;22.27;14.07;;;;;;;;;;5020601;28;20033;-57
2023/05/16 04:28:57;;;;;;;23.77;13.27;;;;;;;;;;5038508;28;20062;-60
2023/05/16 04:31:25;;;;;;;21.30;12.55;;;;;;;;;;5037520;28;20429;-60
2023/05/16 04:33:51;;;;;;;21.85;13.55;;;;;;;;;;5020400;28;20065;-60
2023/05/16 04:36:17;;;;;;;22.75;13.93;;;;;;;;;;5038013;28;20022;-60
2023/05/16 04:38:45;;;;;;;25.10;14.70;;;;;;;;;;5038165;28;20032;-60
2023/05/16 04:41:12;;;;;;;21.70;14.20;;;;;;;;;;5037436;28;20037;-59
2023/05/16 04:43:38;;;;;;;25.75;13.32;;;;;;;;;;5038072;28;20260;-60
2023/05/16 04:46:04;;;;;;;23.88;13.40;;;;;;;;;;5037040;28;20079;-60
2023/05/16 04:48:31;;;;;;;21.80;13.23;;;;;;;;;;5037654;28;20026;-59
2023/05/16 04:50:57;;;;;;;19.83;13.40;;;;;;;;;;5036647;28;20041;-60
2023/05/16 04:53:23;;;;;;;25.58;13.13;;;;;;;;;;5037110;28;20080;-59
2023/05/16 04:55:49;;;;;;;22.13;13.32;;;;;;;;;;5036855;28;20029;-60
2023/05/16 04:58:15;;;;;;;24.00;12.25;;;;;;;;;;5019713;28;20030;-59
2023/05/16 05:00:41;;;;;;;20.40;11.85;;;;;;;;;;5036358;28;20041;-61
2023/05/16 05:03:07;;;;;;;24.23;11.82;;;;;;;;;;5019157;28;20026;-62
2023/05/16 05:05:33;;;;;;;25.33;12.85;;;;;;;;;;5036453;28;20022;-60
2023/05/16 05:08:00;;;;;;;25.20;14.35;;;;;;;;;;5036560;28;20074;-59
2023/05/16 05:10:26;;;;;;;19.85;11.25;;;;;;;;;;5036905;28;20029;-59
2023/05/16 05:12:52;;;;;;;24.52;14.27;;;;;;;;;;5036208;28;20037;-60
2023/05/16 05:15:18;;;;;;;20.13;11.45;;;;;;;;;;5035671;28;20029;-60
2023/05/16 05:17:44;;;;;;;22.52;11.45;;;;;;;;;;5017591;28;20095;-59
2023/05/16 05:20:11;;;;;;;25.77;11.45;;;;;;;;;;5035807;28;20033;-59
2023/05/16 05:22:37;;;;;;;35.35;11.32;;;;;;;;;;5036198;28;20029;-61
2023/05/16 05:25:03;;;;;;;21.48;11.48;;;;;;;;;;5017818;28;20389;-61
2023/05/16 05:27:30;;;;;;;23.27;10.82;;;;;;;;;;5035733;28;20049;-61
2023/05/16 05:29:56;;;;;;;20.55;10.23;;;;;;;;;;5036226;28;20362;-61
2023/05/16 05:32:22;;;;;;;21.75;10.82;;;;;;;;;;5035937;28;20033;-59
2023/05/16 05:34:48;;;;;;;26.90;11.48;;;;;;;;;;5034901;28;20038;-61
2023/05/16 05:37:14;;;;;;;19.30;10.23;;;;;;;;;;5035206;28;20029;-60
2023/05/16 05:39:40;;;;;;;26.02;12.23;;;;;;;;;;5035991;28;20025;-61
2023/05/16 05:42:06;;;;;;;22.08;10.50;;;;;;;;;;5016401;28;20036;-61
2023/05/16 05:44:32;;;;;;;16.90;9.57;;;;;;;;;;5034121;28;20022;-61
2023/05/16 05:46:58;;;;;;;23.00;10.18;;;;;;;;;;5034916;28;20025;-59
2023/05/16 05:49:25;;;;;;;29.63;12.07;;;;;;;;;;5033201;28;20497;-58
2023/05/16 05:51:51;;;;;;;22.20;10.02;;;;;;;;;;5034415;28;20109;-60
2023/05/16 05:54:20;;;;;;;19.63;9.23;;;;;;;;;;5033823;28;20493;-61
2023/05/16 05:56:46;;;;;;;21.00;8.88;;;;;;;;;;5035355;28;20026;-58
2023/05/16 05:59:12;;;;;;;22.98;9.15;;;;;;;;;;5031715;22;20040;-60
2023/05/16 06:01:38;;;;;;;21.42;9.55;;;;;;;;;;5031033;28;20120;-53
2023/05/16 06:04:05;;;;;;;22.52;9.52;;;;;;;;;;5013805;28;20120;-53
2023/05/16 06:06:31;;;;;;;24.98;9.75;;;;;;;;;;5031752;28;20025;-54
2023/05/16 06:08:57;;;;;;;26.58;10.52;;;;;;;;;;5031585;28;20036;-56
2023/05/16 06:11:27;;;;;;;22.33;8.80;;;;;;;;;;5031521;28;20017;-60
2023/05/16 06:13:53;;;;;;;24.23;8.90;;;;;;;;;;5013837;28;20028;-55
2023/05/16 06:16:19;;;;;;;25.15;9.45;;;;;;;;;;5031201;28;20025;-59
2023/05/16 06:18:45;;;;;;;19.38;9.32;;;;;;;;;;5013846;28;20022;-58
2023/05/16 06:21:11;;;;;;;20.55;9.02;;;;;;;;;;5031263;28;20033;-59
2023/05/16 06:23:37;;;;;;;22.17;8.73;;;;;;;;;;5031803;28;20036;-54
2023/05/16 06:26:03;;;;;;;21.02;8.95;;;;;;;;;;5030935;28;20104;-57
2023/05/16 06:28:29;;;;;;;19.08;9.63;;;;;;;;;;5031072;28;20099;-61
2023/05/16 06:30:55;;;;;;;24.30;9.95;;;;;;;;;;5031414;28;20558;-58
2023/05/16 06:33:21;;;;;;;19.25;8.50;;;;;;;;;;5013754;28;20029;-56
2023/05/16 06:35:47;;;;;;;21.65;9.68;;;;;;;;;;5031037;28;20139;-58
2023/05/16 06:38:14;;;;;;;24.55;9.88;;;;;;;;;;5031242;28;20341;-57
2023/05/16 06:40:40;;;;;;;19.35;8.55;;;;;;;;;;5031338;28;20065;-56
2023/05/16 06:43:06;;;;;;;19.55;8.90;;;;;;;;;;5013520;28;20025;-56
2023/05/16 06:45:33;;;;;;;17.50;8.02;;;;;;;;;;5031171;28;20026;-58
2023/05/16 06:47:59;;;;;;;20.55;8.18;;;;;;;;;;5030063;28;20022;-58
2023/05/16 06:50:25;;;;;;;22.67;10.40;;;;;;;;;;5030921;28;20048;-61
2023/05/16 06:52:51;;;;;;;24.88;10.00;;;;;;;;;;5030979;28;20033;-61
2023/05/16 06:55:17;;;;;;;20.58;8.55;;;;;;;;;;5031018;28;20088;-58
2023/05/16 06:57:43;;;;;;;18.52;8.50;;;;;;;;;;5030999;28;20061;-55
2023/05/16 07:00:09;;;;;;;17.52;7.70;;;;;;;;;;5012984;28;20473;-55
2023/05/16 07:02:35;;;;;;;18.27;8.70;;;;;;;;;;5031241;28;20022;-57
2023/05/16 07:05:01;;;;;;;18.15;8.00;;;;;;;;;;5013139;28;20539;-58
2023/05/16 07:07:27;;;;;;;23.92;8.40;;;;;;;;;;5031191;28;20428;-58
2023/05/16 07:09:53;;;;;;;24.02;8.20;;;;;;;;;;5010991;28;20018;-56
2023/05/16 07:12:19;;;;;;;18.33;7.75;;;;;;;;;;5030913;28;20162;-56
2023/05/16 07:14:46;;;;;;;18.77;8.05;;;;;;;;;;5030840;28;20025;-56
2023/05/16 07:17:12;;;;;;;24.33;9.57;;;;;;;;;;5031178;28;20508;-57
2023/05/16 07:19:38;;;;;;;18.35;7.63;;;;;;;;;;5030807;28;20087;-57
2023/05/16 07:22:05;;;;;;;18.65;8.40;;;;;;;;;;5031036;28;20503;-54
2023/05/16 07:24:31;;;;;;;21.88;8.70;;;;;;;;;;5030748;28;20057;-56
2023/05/16 07:26:57;;;;;;;20.50;8.18;;;;;;;;;;5020752;28;20034;-58
2023/05/16 07:29:23;;;;;;;18.83;8.32;;;;;;;;;;5010097;28;20472;-58
2023/05/16 07:31:49;;;;;;;17.45;7.90;;;;;;;;;;5009676;28;20030;-57
2023/05/16 07:34:15;;;;;;;19.60;8.68;;;;;;;;;;5010818;28;20117;-57
2023/05/16 07:36:41;;;;;;;20.02;8.15;;;;;;;;;;5011145;28;20164;-59
2023/05/16 07:39:07;;;;;;;22.88;9.45;;;;;;;;;;5010969;28;20553;-58
2023/05/16 07:41:33;;;;;;;19.00;8.95;;;;;;;;;;5011026;28;20028;-58
2023/05/16 07:43:59;;;;;;;16.23;8.15;;;;;;;;;;5002926;28;20024;-56
2023/05/16 07:46:25;;;;;;;18.67;8.70;;;;;;;;;;5012998;28;20116;-59
2023/05/16 07:48:51;;;;;;;16.38;8.15;;;;;;;;;;5030875;28;20033;-59
2023/05/16 07:51:17;;;;;;;16.30;7.93;;;;;;;;;;5012832;28;20033;-57
2023/05/16 07:53:43;;;;;;;18.20;8.65;;;;;;;;;;5025883;28;20127;-55
2023/05/16 07:56:09;;;;;;;18.92;9.75;;;;;;;;;;5032460;28;20549;-58
2023/05/16 07:58:35;;;;;;;19.45;9.30;;;;;;;;;;5040371;28;20022;-62
2023/05/16 08:01:01;;;;;;;20.73;7.72;;;;;;;;;;5012485;28;20051;-60
2023/05/16 08:03:27;;;;;;;18.38;8.63;;;;;;;;;;5030684;28;20084;-58
2023/05/16 08:05:53;;;;;;;17.33;8.07;;;;;;;;;;5025255;28;20433;-52
2023/05/16 08:08:19;;;;;;;18.23;9.00;;;;;;;;;;5034212;28;20029;-62
2023/05/16 08:10:46;;;;;;;19.27;9.15;;;;;;;;;;5017338;28;20044;-57
2023/05/16 08:13:12;;;;;;;19.58;8.90;;;;;;;;;;5034418;28;20087;-55
2023/05/16 08:15:38;;;;;;;14.80;8.23;;;;;;;;;;5033845;28;20117;-61
2023/05/16 08:18:06;;;;;;;20.02;8.55;;;;;;;;;;5034350;28;20026;-59
2023/05/16 08:20:32;;;;;;;16.63;8.52;;;;;;;;;;5034131;28;20033;-58
2023/05/16 08:22:58;;;;;;;21.48;8.52;;;;;;;;;;5016203;28;20033;-62
2023/05/16 08:25:24;;;;;;;15.95;8.25;;;;;;;;;;5034263;28;20104;-60
2023/05/16 08:27:50;;;;;;;16.25;8.00;;;;;;;;;;5034268;28;20029;-59
2023/05/16 08:30:16;;;;;;;18.02;8.25;;;;;;;;;;5033715;28;20033;-60
2023/05/16 08:32:42;;;;;;;19.15;8.82;;;;;;;;;;5034096;28;20029;-61
2023/05/16 08:35:09;;;;;;;22.50;9.88;;;;;;;;;;5033887;28;20382;-59
2023/05/16 08:37:35;;;;;;;16.42;9.05;;;;;;;;;;5034735;28;20388;-60
2023/05/16 08:40:02;;;;;;;17.52;8.68;;;;;;;;;;5033544;28;20033;-60
2023/05/16 08:42:28;;;;;;;18.02;9.05;;;;;;;;;;5015749;28;20033;-60
2023/05/16 08:44:54;;;;;;;19.33;9.00;;;;;;;;;;5033132;28;20447;-60
2023/05/16 08:47:21;;;;;;;17.27;10.15;;;;;;;;;;5033630;28;20470;-60
2023/05/16 08:49:47;;;;;;;20.38;9.20;;;;;;;;;;5033404;28;20037;-60
2023/05/16 08:52:18;;;;;;;18.10;9.02;;;;;;;;;;5033576;28;20056;-61
2023/05/16 08:54:45;;;;;;;19.38;9.38;;;;;;;;;;5033592;28;20045;-60
2023/05/16 08:57:11;;;;;;;21.52;10.02;;;;;;;;;;5033417;28;20032;-60
2023/05/16 08:59:37;;;;;;;21.02;10.40;;;;;;;;;;5032951;28;20034;-59
2023/05/16 09:02:04;;;;;;;16.13;10.20;;;;;;;;;;5033370;28;20117;-60
2023/05/16 09:04:30;;;;;;;19.73;9.73;;;;;;;;;;5031815;28;20033;-60
2023/05/16 09:06:56;;;;;;;16.30;9.27;;;;;;;;;;5033529;28;20061;-55
2023/05/16 09:09:23;;;;;;;16.90;8.90;;;;;;;;;;5033313;28;20113;-56
2023/05/16 09:11:49;;;;;;;18.67;9.55;;;;;;;;;;5045553;28;20587;-56
2023/05/16 09:14:15;;;;;;;17.65;9.60;;;;;;;;;;5053542;28;20029;-57
2023/05/16 09:16:41;;;;;;;15.45;10.07;;;;;;;;;;5053214;28;20135;-55
2023/05/16 09:19:12;;;;;;;18.20;10.00;;;;;;;;;;5034947;28;20021;-52
2023/05/16 09:21:39;;;;;;;19.33;10.20;;;;;;;;;;5052771;28;20420;-58
2023/05/16 09:24:09;;;;;;;19.85;10.27;;;;;;;;;;5052599;28;20039;-56
2023/05/16 09:26:36;;;;;;;19.27;10.70;;;;;;;;;;5034764;28;20025;-56
2023/05/16 09:29:09;;;;;;;17.02;9.50;;;;;;;;;;5052557;28;20036;-57
2023/05/16 09:31:37;;;;;;;20.15;10.88;;;;;;;;;;5052740;28;20025;-57
2023/05/16 09:34:04;;;;;;;16.40;10.30;;;;;;;;;;5052244;28;20023;-54
2023/05/16 09:36:32;;;;;;;18.35;11.70;;;;;;;;;;5052214;28;20028;-57
2023/05/16 09:38:58;;;;;;;17.07;10.13;;;;;;;;;;5021076;28;20036;-56
2023/05/16 09:41:24;;;;;;;16.95;9.75;;;;;;;;;;5032072;28;20033;-53
2023/05/16 09:43:50;;;;;;;17.55;10.60;;;;;;;;;;5032361;28;20469;-57
2023/05/16 09:46:16;;;;;;;17.25;9.82;;;;;;;;;;5032241;28;20104;-57
2023/05/16 09:48:48;;;;;;;18.30;10.30;;;;;;;;;;5032461;28;20469;-54
2023/05/16 09:51:14;;;;;;;15.75;10.32;;;;;;;;;;5032056;28;20029;-55
2023/05/16 09:53:40;;;;;;;16.52;10.40;;;;;;;;;;5032324;28;20021;-53
2023/05/16 09:56:10;;;;;;;18.98;10.65;;;;;;;;;;5031829;28;20115;-57
2023/05/16 09:58:37;;;;;;;15.20;9.95;;;;;;;;;;5032107;28;20389;-59
2023/05/16 10:01:04;;;;;;;17.08;10.85;;;;;;;;;;5032329;28;20060;-58
2023/05/16 10:03:30;;;;;;;17.85;10.27;;;;;;;;;;5030942;28;20029;-58
2023/05/16 10:05:56;;;;;;;19.67;11.00;;;;;;;;;;5030626;28;20021;-57
2023/05/16 10:08:24;;;;;;;15.65;9.75;;;;;;;;;;5030634;28;20433;-59
2023/05/16 10:10:59;;;;;;;24.60;10.85;;;;;;;;;;5036346;28;20448;-61
2023/05/16 10:13:29;;;;;;;16.73;10.20;;;;;;;;;;5052023;28;20025;-58
2023/05/16 10:15:56;;;;;;;15.15;9.88;;;;;;;;;;5051367;28;20533;-58
2023/05/16 10:18:24;;;;;;;17.33;10.25;;;;;;;;;;5051557;28;20157;-59
2023/05/16 10:20:51;;;;;;;15.83;10.10;;;;;;;;;;5051383;28;20033;-59
2023/05/16 10:23:20;;;;;;;16.50;9.93;;;;;;;;;;5051525;28;20021;-58
2023/05/16 10:25:47;;;;;;;19.52;10.25;;;;;;;;;;5051034;28;20070;-59
2023/05/16 10:28:13;;;;;;;17.60;10.05;;;;;;;;;;5050760;28;20430;-60
2023/05/16 10:30:40;;;;;;;16.40;10.35;;;;;;;;;;5051330;28;20094;-58
2023/05/16 10:33:06;;;;;;;16.50;9.73;;;;;;;;;;5051333;28;20052;-59
2023/05/16 10:35:34;;;;;;;20.85;10.30;;;;;;;;;;5050779;28;20052;-60
2023/05/16 10:38:01;;;;;;;18.27;12.00;;;;;;;;;;5051174;28;20092;-59
2023/05/16 10:40:28;;;;;;;15.82;10.07;;;;;;;;;;5051095;28;20117;-59
2023/05/16 10:42:57;;;;;;;15.00;9.88;;;;;;;;;;5051296;28;20032;-59
2023/05/16 10:45:24;;;;;;;16.52;9.85;;;;;;;;;;5050680;28;20033;-58
2023/05/16 10:47:57;;;;;;;17.00;9.77;;;;;;;;;;5051122;28;20024;-57
2023/05/16 10:50:36;;;;;;;18.20;10.52;;;;;;;;;;5050988;28;20048;-59
2023/05/16 10:53:15;;;;;;;16.42;9.98;;;;;;;;;;5050933;28;20041;-57
2023/05/16 10:55:50;;;;;;;16.15;10.00;;;;;;;;;;5050921;28;20028;-58
2023/05/16 10:58:43;;;;;;;16.73;10.68;;;;;;;;;;5033294;28;20107;-58
2023/05/16 11:01:26;;;;;;;17.50;10.55;;;;;;;;;;5049780;28;20056;-56
2023/05/16 11:03:58;;;;;;;16.48;10.48;;;;;;;;;;5032729;28;20733;-55
2023/05/16 11:06:24;;;;;;;15.13;9.50;;;;;;;;;;5050828;28;20025;-57
2023/05/16 11:09:09;;;;;;;18.90;10.60;;;;;;;;;;5051055;28;20418;-57
2023/05/16 11:11:37;;;;;;;16.52;10.07;;;;;;;;;;5050764;28;20024;-58
2023/05/16 11:14:03;;;;;;;19.30;10.32;;;;;;;;;;5051295;28;20017;-56
2023/05/16 11:16:30;;;;;;;14.82;10.10;;;;;;;;;;5052062;28;20384;-57
2023/05/16 11:19:03;;;;;;;16.17;10.40;;;;;;;;;;5051063;28;20025;-57
2023/05/16 11:21:48;;;;;;;18.02;11.10;;;;;;;;;;5050616;28;20033;-56
2023/05/16 11:24:30;;;;;;;17.33;11.30;;;;;;;;;;5029083;28;20428;-60
2023/05/16 11:26:58;;;;;;;17.40;10.98;;;;;;;;;;5004635;28;20521;-59
2023/05/16 11:29:24;;;;;;;16.75;11.20;;;;;;;;;;5024425;28;20026;-57
2023/05/16 11:31:52;;;;;;;17.33;11.82;;;;;;;;;;5031186;28;20033;-58
2023/05/16 11:34:18;;;;;;;16.70;10.75;;;;;;;;;;5012532;28;20068;-58
2023/05/16 11:36:45;;;;;;;20.65;12.10;;;;;;;;;;5030373;28;20032;-57
2023/05/16 11:39:11;;;;;;;21.42;12.05;;;;;;;;;;5030492;28;20053;-57
2023/05/16 11:41:38;;;;;;;18.27;11.50;;;;;;;;;;5015440;28;20576;-57
2023/05/16 11:44:05;;;;;;;17.58;11.25;;;;;;;;;;5030889;28;20137;-57
2023/05/16 11:46:33;;;;;;;17.40;10.80;;;;;;;;;;5034385;28;20447;-58
2023/05/16 11:48:59;;;;;;;19.60;11.10;;;;;;;;;;5034021;28;20025;-56
2023/05/16 11:51:25;;;;;;;17.17;10.38;;;;;;;;;;5016389;28;20025;-54
2023/05/16 11:53:51;;;;;;;15.60;10.20;;;;;;;;;;5016682;28;20025;-58
2023/05/16 11:56:17;;;;;;;18.48;11.63;;;;;;;;;;5034002;28;20425;-57
2023/05/16 11:58:44;;;;;;;18.02;11.27;;;;;;;;;;5033951;28;20384;-58
2023/05/16 12:01:10;;;;;;;19.35;10.80;;;;;;;;;;5046791;22;20025;-51
2023/05/16 12:03:37;;;;;;;16.13;11.10;;;;;;;;;;5006769;28;20096;-53
2023/05/16 12:06:04;;;;;;;17.52;11.52;;;;;;;;;;5004134;28;20026;-52
2023/05/16 12:08:30;;;;;;;17.88;11.50;;;;;;;;;;5005957;28;20022;-57
2023/05/16 12:10:57;;;;;;;18.23;11.35;;;;;;;;;;5001567;28;20521;-58
2023/05/16 12:13:24;;;;;;;16.50;11.10;;;;;;;;;;5004675;28;20037;-54
2023/05/16 12:15:51;;;;;;;16.92;10.80;;;;;;;;;;5002044;28;20117;-56
2023/05/16 12:18:18;;;;;;;17.48;10.90;;;;;;;;;;5005592;28;20063;-54
2023/05/16 12:20:44;;;;;;;18.85;11.38;;;;;;;;;;5013873;28;20046;-57
2023/05/16 12:23:11;;;;;;;18.48;11.50;;;;;;;;;;5015118;28;20034;-53
2023/05/16 12:25:42;;;;;;;15.85;10.60;;;;;;;;;;5013857;28;20511;-53
2023/05/16 12:28:08;;;;;;;15.45;10.38;;;;;;;;;;5011952;28;20034;-55
2023/05/16 12:30:35;;;;;;;16.83;10.93;;;;;;;;;;5005260;28;20436;-59
2023/05/16 12:33:01;;;;;;;16.65;10.63;;;;;;;;;;5003979;28;20101;-54
2023/05/16 12:35:32;;;;;;;16.35;11.43;;;;;;;;;;5001303;28;20037;-57
2023/05/16 12:37:58;;;;;;;15.80;11.00;;;;;;;;;;5000084;28;20018;-58
2023/05/16 12:40:27;;;;;;;16.38;10.93;;;;;;;;;;5003440;28;20374;-57
2023/05/16 12:42:53;;;;;;;15.63;10.55;;;;;;;;;;5003912;28;20029;-55
2023/05/16 12:45:19;;;;;;;15.75;10.85;;;;;;;;;;4995235;28;20509;-54
2023/05/16 12:47:46;;;;;;;15.65;11.57;;;;;;;;;;4994072;28;20699;-50
2023/05/16 12:50:13;;;;;;;17.98;11.40;;;;;;;;;;4994093;28;20080;-54
2023/05/16 12:52:48;;;;;;;15.32;10.48;;;;;;;;;;4994177;28;20034;-57
2023/05/16 12:55:15;;;;;;;20.25;11.60;;;;;;;;;;4991200;28;20041;-53
2023/05/16 12:57:42;;;;;;;17.27;11.88;;;;;;;;;;5001479;28;20089;-55
2023/05/16 13:00:10;;;;;;;18.10;10.82;;;;;;;;;;4993329;28;20053;-57
2023/05/16 13:02:36;;;;;;;16.63;10.65;;;;;;;;;;4993845;28;20130;-58
2023/05/16 13:05:03;;;;;;;16.83;11.00;;;;;;;;;;4994486;28;20068;-57
2023/05/16 13:07:29;;;;;;;18.17;10.60;;;;;;;;;;4994715;28;20023;-58
2023/05/16 13:09:55;;;;;;;18.08;11.05;;;;;;;;;;4994243;28;20030;-54
2023/05/16 13:12:25;;;;;;;19.50;11.85;;;;;;;;;;4994139;28;20081;-56
2023/05/16 13:14:51;;;;;;;15.50;10.93;;;;;;;;;;4992590;28;20031;-52
2023/05/16 13:17:17;;;;;;;16.10;11.20;;;;;;;;;;4645731;28;10000228;-56
2023/05/16 13:19:43;;;;;;;16.38;11.00;;;;;;;;;;4980877;28;20030;-53
2023/05/16 13:22:09;;;;;;;17.13;11.23;;;;;;;;;;4981596;28;20062;-57
2023/05/16 13:24:35;;;;;;;18.15;11.80;;;;;;;;;;4971480;28;20102;-56
2023/05/16 13:27:01;;;;;;;17.10;12.95;;;;;;;;;;4984096;28;20026;-57
2023/05/16 13:29:28;;;;;;;16.25;11.85;;;;;;;;;;4990037;28;20085;-58
2023/05/16 13:31:54;;;;;;;17.23;11.40;;;;;;;;;;4990729;28;20022;-57
2023/05/16 13:34:20;;;;;;;15.52;11.30;;;;;;;;;;4985576;28;20023;-58
2023/05/16 13:36:48;;;;;;;15.38;11.35;;;;;;;;;;4995291;28;20023;-58
2023/05/16 13:39:14;;;;;;;16.63;11.77;;;;;;;;;;4999048;28;20327;-54
2023/05/16 13:41:41;;;;;;;16.70;12.20;;;;;;;;;;5000409;28;20030;-60
2023/05/16 13:44:07;;;;;;;17.77;11.50;;;;;;;;;;4998997;28;20065;-58
2023/05/16 13:46:33;;;;;;;17.58;11.45;;;;;;;;;;4994233;28;20030;-58
2023/05/16 13:48:59;;;;;;;18.20;11.43;;;;;;;;;;4997959;28;20018;-56
2023/05/16 13:51:25;;;;;;;18.48;11.63;;;;;;;;;;4999269;28;20052;-55
2023/05/16 13:53:51;;;;;;;18.33;12.15;;;;;;;;;;4999486;28;20030;-61
2023/05/16 13:56:17;;;;;;;18.35;11.60;;;;;;;;;;4998406;28;20036;-54
2023/05/16 13:58:43;;;;;;;17.00;11.20;;;;;;;;;;5000613;28;20034;-56
2023/05/16 14:01:09;;;;;;;16.50;10.98;;;;;;;;;;4996794;28;20037;-55
2023/05/16 14:03:35;;;;;;;15.68;11.40;;;;;;;;;;4999328;28;20032;-54
2023/05/16 14:06:03;;;;;;;16.95;11.70;;;;;;;;;;5009814;28;20567;-58
2023/05/16 14:08:29;;;;;;;18.05;12.20;;;;;;;;;;5009867;28;20032;-56
2023/05/16 14:10:55;;;;;;;17.45;11.90;;;;;;;;;;5007015;28;20026;-58
2023/05/16 14:13:21;;;;;;;16.65;11.38;;;;;;;;;;4991580;28;20022;-57
2023/05/16 14:15:47;;;;;;;16.13;11.50;;;;;;;;;;4992032;28;20379;-57
2023/05/16 14:18:13;;;;;;;19.10;10.88;;;;;;;;;;4992159;28;20069;-58
2023/05/16 14:20:39;;;;;;;18.25;11.65;;;;;;;;;;4989920;28;20040;-58